sensor_id;sensor_type;location;lat;lon;timestamp;P1;durP1;ratioP1;P2;durP2;ratioP2
23668;SDS011;12011;47.422;15.018;2023-09-07T00:00:58;3.73;;;3.73;;
23668;SDS011;12011;47.422;15.018;2023-09-07T00:04:02;3.45;;;3.45;;
23668;SDS011;12011;47.422;15.018;2023-09-07T00:06:46;4.27;;;4.27;;
23668;SDS011;12011;47.422;15.018;2023-09-07T00:13:29;3.91;;;3.91;;
23668;SDS011;12011;47.422;15.018;2023-09-07T00:16:31;3.71;;;3.71;;
23668;SDS011;12011;47.422;15.018;2023-09-07T00:19:33;3.73;;;3.73;;
23668;SDS011;12011;47.422;15.018;2023-09-07T00:22:59;3.91;;;3.91;;
23668;SDS011;12011;47.422;15.018;2023-09-07T00:26:00;3.88;;;3.88;;
23668;SDS011;12011;47.422;15.018;2023-09-07T00:29:21;4.13;;;4.13;;
23668;SDS011;12011;47.422;15.018;2023-09-07T00:32:19;3.90;;;3.90;;
23668;SDS011;12011;47.422;15.018;2023-09-07T00:35:12;3.86;;;3.86;;
23668;SDS011;12011;47.422;15.018;2023-09-07T00:38:39;3.70;;;3.70;;
23668;SDS011;12011;47.422;15.018;2023-09-07T00:41:48;3.36;;;3.36;;
23668;SDS011;12011;47.422;15.018;2023-09-07T00:44:32;3.62;;;3.62;;
23668;SDS011;12011;47.422;15.018;2023-09-07T00:47:20;3.66;;;3.66;;
23668;SDS011;12011;47.422;15.018;2023-09-07T00:50:01;3.92;;;3.92;;
23668;SDS011;12011;47.422;15.018;2023-09-07T00:52:56;4.14;;;4.14;;
23668;SDS011;12011;47.422;15.018;2023-09-07T00:55:51;4.29;;;4.29;;
23668;SDS011;12011;47.422;15.018;2023-09-07T00:58:52;4.40;;;4.40;;
23668;SDS011;12011;47.422;15.018;2023-09-07T01:01:50;4.18;;;4.18;;
23668;SDS011;12011;47.422;15.018;2023-09-07T01:04:55;3.73;;;3.73;;
23668;SDS011;12011;47.422;15.018;2023-09-07T01:08:05;3.37;;;3.37;;
23668;SDS011;12011;47.422;15.018;2023-09-07T01:15:08;3.60;;;3.60;;
23668;SDS011;12011;47.422;15.018;2023-09-07T01:21:59;4.22;;;4.22;;
23668;SDS011;12011;47.422;15.018;2023-09-07T01:25:10;3.48;;;3.48;;
23668;SDS011;12011;47.422;15.018;2023-09-07T01:28:17;3.61;;;3.61;;
23668;SDS011;12011;47.422;15.018;2023-09-07T01:31:58;4.06;;;4.06;;
23668;SDS011;12011;47.422;15.018;2023-09-07T01:35:11;4.33;;;4.33;;
23668;SDS011;12011;47.422;15.018;2023-09-07T01:38:25;4.33;;;4.33;;
23668;SDS011;12011;47.422;15.018;2023-09-07T01:41:29;4.16;;;4.16;;
23668;SDS011;12011;47.422;15.018;2023-09-07T01:44:48;3.73;;;3.73;;
23668;SDS011;12011;47.422;15.018;2023-09-07T01:51:54;3.75;;;3.75;;
23668;SDS011;12011;47.422;15.018;2023-09-07T01:55:27;3.32;;;3.32;;
23668;SDS011;12011;47.422;15.018;2023-09-07T02:01:54;3.87;;;3.87;;
23668;SDS011;12011;47.422;15.018;2023-09-07T02:05:02;4.15;;;4.15;;
23668;SDS011;12011;47.422;15.018;2023-09-07T02:07:59;4.19;;;4.19;;
23668;SDS011;12011;47.422;15.018;2023-09-07T02:11:02;4.01;;;4.01;;
23668;SDS011;12011;47.422;15.018;2023-09-07T02:14:09;4.30;;;4.30;;
23668;SDS011;12011;47.422;15.018;2023-09-07T02:17:50;4.08;;;4.08;;
23668;SDS011;12011;47.422;15.018;2023-09-07T02:24:17;3.81;;;3.81;;
23668;SDS011;12011;47.422;15.018;2023-09-07T02:27:42;4.21;;;4.21;;
23668;SDS011;12011;47.422;15.018;2023-09-07T02:34:18;4.30;;;4.30;;
23668;SDS011;12011;47.422;15.018;2023-09-07T02:37:41;3.62;;;3.62;;
23668;SDS011;12011;47.422;15.018;2023-09-07T02:40:41;4.89;;;4.89;;
23668;SDS011;12011;47.422;15.018;2023-09-07T02:47:17;4.29;;;4.29;;
23668;SDS011;12011;47.422;15.018;2023-09-07T02:50:19;4.02;;;4.02;;
23668;SDS011;12011;47.422;15.018;2023-09-07T02:53:25;4.25;;;4.25;;
23668;SDS011;12011;47.422;15.018;2023-09-07T02:56:27;4.25;;;4.25;;
23668;SDS011;12011;47.422;15.018;2023-09-07T02:59:31;3.79;;;3.79;;
23668;SDS011;12011;47.422;15.018;2023-09-07T03:05:42;4.31;;;4.31;;
23668;SDS011;12011;47.422;15.018;2023-09-07T03:08:34;4.22;;;4.22;;
23668;SDS011;12011;47.422;15.018;2023-09-07T03:11:30;3.78;;;3.78;;
23668;SDS011;12011;47.422;15.018;2023-09-07T03:14:17;3.65;;;3.65;;
23668;SDS011;12011;47.422;15.018;2023-09-07T03:17:01;3.64;;;3.64;;
23668;SDS011;12011;47.422;15.018;2023-09-07T03:20:04;3.88;;;3.88;;
23668;SDS011;12011;47.422;15.018;2023-09-07T03:23:10;4.12;;;4.12;;
23668;SDS011;12011;47.422;15.018;2023-09-07T03:26:24;4.18;;;4.18;;
23668;SDS011;12011;47.422;15.018;2023-09-07T03:29:19;4.00;;;4.00;;
23668;SDS011;12011;47.422;15.018;2023-09-07T03:32:39;3.50;;;3.50;;
23668;SDS011;12011;47.422;15.018;2023-09-07T03:36:05;3.39;;;3.39;;
23668;SDS011;12011;47.422;15.018;2023-09-07T03:39:04;4.02;;;4.02;;
23668;SDS011;12011;47.422;15.018;2023-09-07T03:42:43;4.37;;;4.37;;
23668;SDS011;12011;47.422;15.018;2023-09-07T03:45:56;4.87;;;4.87;;
23668;SDS011;12011;47.422;15.018;2023-09-07T03:48:55;4.59;;;4.59;;
23668;SDS011;12011;47.422;15.018;2023-09-07T03:51:52;4.34;;;4.34;;
23668;SDS011;12011;47.422;15.018;2023-09-07T03:55:02;4.49;;;4.49;;
23668;SDS011;12011;47.422;15.018;2023-09-07T04:01:37;4.36;;;4.36;;
23668;SDS011;12011;47.422;15.018;2023-09-07T04:05:09;4.26;;;4.26;;
23668;SDS011;12011;47.422;15.018;2023-09-07T04:08:08;4.06;;;4.06;;
23668;SDS011;12011;47.422;15.018;2023-09-07T04:11:11;4.09;;;4.09;;
23668;SDS011;12011;47.422;15.018;2023-09-07T04:14:03;4.71;;;4.71;;
23668;SDS011;12011;47.422;15.018;2023-09-07T04:17:04;4.70;;;4.70;;
23668;SDS011;12011;47.422;15.018;2023-09-07T04:19:55;4.44;;;4.44;;
23668;SDS011;12011;47.422;15.018;2023-09-07T04:22:49;3.71;;;3.71;;
23668;SDS011;12011;47.422;15.018;2023-09-07T04:25:39;4.29;;;4.29;;
23668;SDS011;12011;47.422;15.018;2023-09-07T04:28:49;4.27;;;4.27;;
23668;SDS011;12011;47.422;15.018;2023-09-07T04:32:05;3.98;;;3.98;;
23668;SDS011;12011;47.422;15.018;2023-09-07T04:35:11;3.90;;;3.90;;
23668;SDS011;12011;47.422;15.018;2023-09-07T04:38:15;4.25;;;4.25;;
23668;SDS011;12011;47.422;15.018;2023-09-07T04:41:16;4.97;;;4.97;;
23668;SDS011;12011;47.422;15.018;2023-09-07T04:44:16;4.78;;;4.78;;
23668;SDS011;12011;47.422;15.018;2023-09-07T04:47:33;4.87;;;4.87;;
23668;SDS011;12011;47.422;15.018;2023-09-07T04:50:25;4.72;;;4.72;;
23668;SDS011;12011;47.422;15.018;2023-09-07T04:53:32;4.54;;;4.54;;
23668;SDS011;12011;47.422;15.018;2023-09-07T04:56:16;4.46;;;4.46;;
23668;SDS011;12011;47.422;15.018;2023-09-07T04:59:00;4.51;;;4.51;;
23668;SDS011;12011;47.422;15.018;2023-09-07T05:01:53;4.64;;;4.64;;
23668;SDS011;12011;47.422;15.018;2023-09-07T05:05:02;5.28;;;5.26;;
23668;SDS011;12011;47.422;15.018;2023-09-07T05:07:55;5.58;;;5.57;;
23668;SDS011;12011;47.422;15.018;2023-09-07T05:10:37;5.57;;;5.56;;
23668;SDS011;12011;47.422;15.018;2023-09-07T05:13:21;5.21;;;5.21;;
23668;SDS011;12011;47.422;15.018;2023-09-07T05:16:17;5.55;;;5.55;;
23668;SDS011;12011;47.422;15.018;2023-09-07T05:19:32;4.81;;;4.81;;
23668;SDS011;12011;47.422;15.018;2023-09-07T05:22:28;5.09;;;5.09;;
23668;SDS011;12011;47.422;15.018;2023-09-07T05:25:14;5.18;;;5.18;;
23668;SDS011;12011;47.422;15.018;2023-09-07T05:28:24;5.01;;;5.01;;
23668;SDS011;12011;47.422;15.018;2023-09-07T05:31:19;5.19;;;5.19;;
23668;SDS011;12011;47.422;15.018;2023-09-07T05:34:07;5.59;;;5.59;;
23668;SDS011;12011;47.422;15.018;2023-09-07T05:40:40;5.14;;;5.14;;
23668;SDS011;12011;47.422;15.018;2023-09-07T05:43:44;4.55;;;4.55;;
23668;SDS011;12011;47.422;15.018;2023-09-07T05:46:56;4.69;;;4.69;;
23668;SDS011;12011;47.422;15.018;2023-09-07T05:49:49;4.79;;;4.79;;
23668;SDS011;12011;47.422;15.018;2023-09-07T05:52:32;4.54;;;4.54;;
23668;SDS011;12011;47.422;15.018;2023-09-07T05:55:20;7.07;;;7.06;;
23668;SDS011;12011;47.422;15.018;2023-09-07T05:58:25;4.12;;;4.11;;
23668;SDS011;12011;47.422;15.018;2023-09-07T06:04:26;3.82;;;3.78;;
23668;SDS011;12011;47.422;15.018;2023-09-07T06:07:28;3.77;;;3.77;;
23668;SDS011;12011;47.422;15.018;2023-09-07T06:10:27;3.88;;;3.88;;
23668;SDS011;12011;47.422;15.018;2023-09-07T06:13:45;3.87;;;3.87;;
23668;SDS011;12011;47.422;15.018;2023-09-07T06:16:31;4.14;;;4.14;;
23668;SDS011;12011;47.422;15.018;2023-09-07T06:19:19;3.99;;;3.99;;
23668;SDS011;12011;47.422;15.018;2023-09-07T06:22:05;4.44;;;4.44;;
23668;SDS011;12011;47.422;15.018;2023-09-07T06:25:06;4.71;;;4.71;;
23668;SDS011;12011;47.422;15.018;2023-09-07T06:27:59;4.70;;;4.70;;
23668;SDS011;12011;47.422;15.018;2023-09-07T06:31:15;4.35;;;4.35;;
23668;SDS011;12011;47.422;15.018;2023-09-07T06:34:17;3.94;;;3.94;;
23668;SDS011;12011;47.422;15.018;2023-09-07T06:37:01;3.76;;;3.76;;
23668;SDS011;12011;47.422;15.018;2023-09-07T06:39:43;3.87;;;3.87;;
23668;SDS011;12011;47.422;15.018;2023-09-07T06:42:33;3.60;;;3.60;;
23668;SDS011;12011;47.422;15.018;2023-09-07T06:45:25;3.83;;;3.83;;
23668;SDS011;12011;47.422;15.018;2023-09-07T06:48:14;3.59;;;3.59;;
23668;SDS011;12011;47.422;15.018;2023-09-07T06:51:10;3.74;;;3.74;;
23668;SDS011;12011;47.422;15.018;2023-09-07T06:53:54;3.72;;;3.72;;
23668;SDS011;12011;47.422;15.018;2023-09-07T06:56:43;3.81;;;3.81;;
23668;SDS011;12011;47.422;15.018;2023-09-07T06:59:48;3.28;;;3.28;;
23668;SDS011;12011;47.422;15.018;2023-09-07T07:02:43;3.62;;;3.62;;
23668;SDS011;12011;47.422;15.018;2023-09-07T07:05:53;3.43;;;3.43;;
23668;SDS011;12011;47.422;15.018;2023-09-07T07:09:03;3.45;;;3.45;;
23668;SDS011;12011;47.422;15.018;2023-09-07T07:11:35;3.45;;;3.45;;
23668;SDS011;12011;47.422;15.018;2023-09-07T07:14:09;3.36;;;3.36;;
23668;SDS011;12011;47.422;15.018;2023-09-07T07:16:42;3.72;;;3.72;;
23668;SDS011;12011;47.422;15.018;2023-09-07T07:19:14;4.07;;;4.07;;
23668;SDS011;12011;47.422;15.018;2023-09-07T07:21:49;3.77;;;3.77;;
23668;SDS011;12011;47.422;15.018;2023-09-07T07:24:19;3.77;;;3.77;;
23668;SDS011;12011;47.422;15.018;2023-09-07T07:26:52;3.68;;;3.68;;
23668;SDS011;12011;47.422;15.018;2023-09-07T07:29:34;3.54;;;3.54;;
23668;SDS011;12011;47.422;15.018;2023-09-07T07:32:20;3.89;;;3.89;;
23668;SDS011;12011;47.422;15.018;2023-09-07T07:34:59;3.62;;;3.62;;
23668;SDS011;12011;47.422;15.018;2023-09-07T07:37:46;3.55;;;3.55;;
23668;SDS011;12011;47.422;15.018;2023-09-07T07:40:22;3.77;;;3.77;;
23668;SDS011;12011;47.422;15.018;2023-09-07T07:42:55;3.90;;;3.90;;
23668;SDS011;12011;47.422;15.018;2023-09-07T07:45:26;3.95;;;3.95;;
23668;SDS011;12011;47.422;15.018;2023-09-07T07:48:03;3.60;;;3.60;;
23668;SDS011;12011;47.422;15.018;2023-09-07T07:50:39;3.88;;;3.88;;
23668;SDS011;12011;47.422;15.018;2023-09-07T07:53:28;3.88;;;3.88;;
23668;SDS011;12011;47.422;15.018;2023-09-07T07:56:06;4.31;;;4.31;;
23668;SDS011;12011;47.422;15.018;2023-09-07T07:59:10;3.84;;;3.84;;
23668;SDS011;12011;47.422;15.018;2023-09-07T08:01:51;3.91;;;3.91;;
23668;SDS011;12011;47.422;15.018;2023-09-07T08:04:38;3.95;;;3.95;;
23668;SDS011;12011;47.422;15.018;2023-09-07T08:07:19;3.93;;;3.93;;
23668;SDS011;12011;47.422;15.018;2023-09-07T08:30:02;4.45;;;4.45;;
23668;SDS011;12011;47.422;15.018;2023-09-07T08:32:53;4.37;;;4.37;;
23668;SDS011;12011;47.422;15.018;2023-09-07T08:35:28;4.68;;;4.68;;
23668;SDS011;12011;47.422;15.018;2023-09-07T08:38:11;5.26;;;5.26;;
23668;SDS011;12011;47.422;15.018;2023-09-07T08:40:43;5.53;;;5.53;;
23668;SDS011;12011;47.422;15.018;2023-09-07T08:43:19;5.41;;;5.41;;
23668;SDS011;12011;47.422;15.018;2023-09-07T08:45:58;6.31;;;6.31;;
23668;SDS011;12011;47.422;15.018;2023-09-07T08:48:37;5.43;;;5.43;;
23668;SDS011;12011;47.422;15.018;2023-09-07T08:51:16;5.21;;;5.21;;
23668;SDS011;12011;47.422;15.018;2023-09-07T08:53:58;4.86;;;4.86;;
23668;SDS011;12011;47.422;15.018;2023-09-07T08:56:32;5.19;;;5.19;;
23668;SDS011;12011;47.422;15.018;2023-09-07T08:59:07;5.27;;;5.27;;
23668;SDS011;12011;47.422;15.018;2023-09-07T09:01:46;5.18;;;5.18;;
23668;SDS011;12011;47.422;15.018;2023-09-07T09:04:19;5.41;;;5.41;;
23668;SDS011;12011;47.422;15.018;2023-09-07T09:06:51;5.61;;;5.61;;
23668;SDS011;12011;47.422;15.018;2023-09-07T09:09:25;5.28;;;5.28;;
23668;SDS011;12011;47.422;15.018;2023-09-07T09:12:06;5.16;;;5.16;;
23668;SDS011;12011;47.422;15.018;2023-09-07T09:14:42;4.83;;;4.83;;
23668;SDS011;12011;47.422;15.018;2023-09-07T09:17:18;4.86;;;4.86;;
23668;SDS011;12011;47.422;15.018;2023-09-07T09:19:51;5.01;;;5.01;;
23668;SDS011;12011;47.422;15.018;2023-09-07T09:22:21;5.23;;;5.23;;
23668;SDS011;12011;47.422;15.018;2023-09-07T09:25:02;4.80;;;4.80;;
23668;SDS011;12011;47.422;15.018;2023-09-07T09:27:37;4.95;;;4.95;;
23668;SDS011;12011;47.422;15.018;2023-09-07T09:30:11;4.61;;;4.61;;
23668;SDS011;12011;47.422;15.018;2023-09-07T09:32:48;4.32;;;4.32;;
23668;SDS011;12011;47.422;15.018;2023-09-07T09:35:22;3.92;;;3.92;;
23668;SDS011;12011;47.422;15.018;2023-09-07T09:37:55;4.14;;;4.14;;
23668;SDS011;12011;47.422;15.018;2023-09-07T09:40:30;4.22;;;4.22;;
23668;SDS011;12011;47.422;15.018;2023-09-07T09:43:02;4.06;;;4.06;;
23668;SDS011;12011;47.422;15.018;2023-09-07T09:45:32;3.69;;;3.69;;
23668;SDS011;12011;47.422;15.018;2023-09-07T09:48:07;3.43;;;3.43;;
23668;SDS011;12011;47.422;15.018;2023-09-07T09:50:41;3.59;;;3.59;;
23668;SDS011;12011;47.422;15.018;2023-09-07T09:53:14;3.65;;;3.65;;
23668;SDS011;12011;47.422;15.018;2023-09-07T09:55:49;3.01;;;3.01;;
23668;SDS011;12011;47.422;15.018;2023-09-07T09:58:20;3.10;;;3.10;;
23668;SDS011;12011;47.422;15.018;2023-09-07T10:00:53;3.40;;;3.40;;
23668;SDS011;12011;47.422;15.018;2023-09-07T10:07:49;3.37;;;3.37;;
23668;SDS011;12011;47.422;15.018;2023-09-07T10:12:01;3.14;;;3.14;;
23668;SDS011;12011;47.422;15.018;2023-09-07T10:15:59;3.10;;;3.10;;
23668;SDS011;12011;47.422;15.018;2023-09-07T10:20:22;2.84;;;2.84;;
23668;SDS011;12011;47.422;15.018;2023-09-07T10:23:35;2.92;;;2.92;;
23668;SDS011;12011;47.422;15.018;2023-09-07T10:26:50;2.76;;;2.76;;
23668;SDS011;12011;47.422;15.018;2023-09-07T10:33:45;2.50;;;2.50;;
23668;SDS011;12011;47.422;15.018;2023-09-07T10:37:10;2.36;;;2.36;;
23668;SDS011;12011;47.422;15.018;2023-09-07T10:39:56;2.27;;;2.27;;
23668;SDS011;12011;47.422;15.018;2023-09-07T10:43:33;2.10;;;2.10;;
23668;SDS011;12011;47.422;15.018;2023-09-07T10:47:15;2.01;;;2.01;;
23668;SDS011;12011;47.422;15.018;2023-09-07T10:51:20;2.40;;;2.40;;
23668;SDS011;12011;47.422;15.018;2023-09-07T11:02:38;1.93;;;1.93;;
23668;SDS011;12011;47.422;15.018;2023-09-07T11:07:21;2.08;;;2.08;;
23668;SDS011;12011;47.422;15.018;2023-09-07T11:15:29;2.00;;;2.00;;
23668;SDS011;12011;47.422;15.018;2023-09-07T11:19:36;1.86;;;1.86;;
23668;SDS011;12011;47.422;15.018;2023-09-07T12:11:43;2.52;;;2.52;;
23668;SDS011;12011;47.422;15.018;2023-09-07T12:15:29;2.43;;;2.43;;
23668;SDS011;12011;47.422;15.018;2023-09-07T12:20:02;2.62;;;2.62;;
23668;SDS011;12011;47.422;15.018;2023-09-07T12:40:08;2.44;;;2.44;;
23668;SDS011;12011;47.422;15.018;2023-09-07T13:33:23;2.77;;;2.77;;
23668;SDS011;12011;47.422;15.018;2023-09-07T13:47:42;2.69;;;2.69;;
23668;SDS011;12011;47.422;15.018;2023-09-07T13:51:14;2.67;;;2.67;;
23668;SDS011;12011;47.422;15.018;2023-09-07T13:54:22;2.39;;;2.39;;
23668;SDS011;12011;47.422;15.018;2023-09-07T13:58:32;2.50;;;2.50;;
23668;SDS011;12011;47.422;15.018;2023-09-07T14:05:01;2.76;;;2.76;;
23668;SDS011;12011;47.422;15.018;2023-09-07T14:11:47;2.62;;;2.62;;
23668;SDS011;12011;47.422;15.018;2023-09-07T14:17:58;2.65;;;2.65;;
23668;SDS011;12011;47.422;15.018;2023-09-07T14:20:50;2.73;;;2.73;;
23668;SDS011;12011;47.422;15.018;2023-09-07T14:23:38;2.62;;;2.62;;
23668;SDS011;12011;47.422;15.018;2023-09-07T14:30:23;2.78;;;2.78;;
23668;SDS011;12011;47.422;15.018;2023-09-07T14:32:53;2.69;;;2.69;;
23668;SDS011;12011;47.422;15.018;2023-09-07T14:35:22;2.57;;;2.57;;
23668;SDS011;12011;47.422;15.018;2023-09-07T14:37:52;2.86;;;2.86;;
23668;SDS011;12011;47.422;15.018;2023-09-07T14:40:22;2.54;;;2.54;;
23668;SDS011;12011;47.422;15.018;2023-09-07T14:42:52;2.60;;;2.60;;
23668;SDS011;12011;47.422;15.018;2023-09-07T14:45:26;2.80;;;2.80;;
23668;SDS011;12011;47.422;15.018;2023-09-07T14:47:55;3.09;;;3.09;;
23668;SDS011;12011;47.422;15.018;2023-09-07T14:50:25;2.62;;;2.62;;
23668;SDS011;12011;47.422;15.018;2023-09-07T14:52:55;2.66;;;2.66;;
23668;SDS011;12011;47.422;15.018;2023-09-07T14:55:25;2.75;;;2.75;;
23668;SDS011;12011;47.422;15.018;2023-09-07T14:57:55;2.57;;;2.57;;
23668;SDS011;12011;47.422;15.018;2023-09-07T15:00:27;2.88;;;2.88;;
23668;SDS011;12011;47.422;15.018;2023-09-07T15:02:58;2.85;;;2.85;;
23668;SDS011;12011;47.422;15.018;2023-09-07T15:05:27;2.69;;;2.69;;
23668;SDS011;12011;47.422;15.018;2023-09-07T15:07:57;2.51;;;2.51;;
23668;SDS011;12011;47.422;15.018;2023-09-07T15:10:30;2.68;;;2.68;;
23668;SDS011;12011;47.422;15.018;2023-09-07T15:12:59;2.69;;;2.69;;
23668;SDS011;12011;47.422;15.018;2023-09-07T15:15:32;2.63;;;2.63;;
23668;SDS011;12011;47.422;15.018;2023-09-07T15:18:05;2.64;;;2.64;;
23668;SDS011;12011;47.422;15.018;2023-09-07T15:20:36;2.66;;;2.66;;
23668;SDS011;12011;47.422;15.018;2023-09-07T15:23:06;2.54;;;2.54;;
23668;SDS011;12011;47.422;15.018;2023-09-07T15:25:36;2.71;;;2.71;;
23668;SDS011;12011;47.422;15.018;2023-09-07T15:28:06;2.64;;;2.64;;
23668;SDS011;12011;47.422;15.018;2023-09-07T15:30:39;2.76;;;2.76;;
23668;SDS011;12011;47.422;15.018;2023-09-07T15:33:09;2.90;;;2.90;;
23668;SDS011;12011;47.422;15.018;2023-09-07T15:35:42;2.75;;;2.75;;
23668;SDS011;12011;47.422;15.018;2023-09-07T15:38:12;2.82;;;2.82;;
23668;SDS011;12011;47.422;15.018;2023-09-07T15:40:44;3.01;;;3.01;;
23668;SDS011;12011;47.422;15.018;2023-09-07T15:43:24;2.64;;;2.64;;
23668;SDS011;12011;47.422;15.018;2023-09-07T15:49:48;2.66;;;2.66;;
23668;SDS011;12011;47.422;15.018;2023-09-07T15:52:20;2.60;;;2.60;;
23668;SDS011;12011;47.422;15.018;2023-09-07T15:54:52;2.78;;;2.76;;
23668;SDS011;12011;47.422;15.018;2023-09-07T16:00:25;2.81;;;2.81;;
23668;SDS011;12011;47.422;15.018;2023-09-07T16:03:02;2.90;;;2.90;;
23668;SDS011;12011;47.422;15.018;2023-09-07T16:05:36;2.90;;;2.90;;
23668;SDS011;12011;47.422;15.018;2023-09-07T16:08:06;3.01;;;3.01;;
23668;SDS011;12011;47.422;15.018;2023-09-07T16:10:36;2.87;;;2.87;;
23668;SDS011;12011;47.422;15.018;2023-09-07T16:13:06;2.71;;;2.71;;
23668;SDS011;12011;47.422;15.018;2023-09-07T16:15:36;2.74;;;2.74;;
23668;SDS011;12011;47.422;15.018;2023-09-07T16:18:06;2.81;;;2.81;;
23668;SDS011;12011;47.422;15.018;2023-09-07T16:20:38;2.87;;;2.87;;
23668;SDS011;12011;47.422;15.018;2023-09-07T16:23:07;2.95;;;2.95;;
23668;SDS011;12011;47.422;15.018;2023-09-07T16:25:37;2.82;;;2.82;;
23668;SDS011;12011;47.422;15.018;2023-09-07T16:28:07;3.04;;;3.04;;
23668;SDS011;12011;47.422;15.018;2023-09-07T16:30:36;3.19;;;3.19;;
23668;SDS011;12011;47.422;15.018;2023-09-07T16:33:07;2.79;;;2.79;;
23668;SDS011;12011;47.422;15.018;2023-09-07T16:35:39;2.85;;;2.85;;
23668;SDS011;12011;47.422;15.018;2023-09-07T16:38:09;2.84;;;2.84;;
23668;SDS011;12011;47.422;15.018;2023-09-07T16:40:40;3.08;;;3.08;;
23668;SDS011;12011;47.422;15.018;2023-09-07T16:43:10;3.23;;;3.23;;
23668;SDS011;12011;47.422;15.018;2023-09-07T16:45:39;3.06;;;3.06;;
23668;SDS011;12011;47.422;15.018;2023-09-07T16:48:09;2.74;;;2.74;;
23668;SDS011;12011;47.422;15.018;2023-09-07T16:50:46;3.02;;;3.02;;
23668;SDS011;12011;47.422;15.018;2023-09-07T16:53:16;2.74;;;2.74;;
23668;SDS011;12011;47.422;15.018;2023-09-07T16:55:46;2.73;;;2.73;;
23668;SDS011;12011;47.422;15.018;2023-09-07T16:58:16;3.09;;;3.09;;
23668;SDS011;12011;47.422;15.018;2023-09-07T17:00:46;2.94;;;2.94;;
23668;SDS011;12011;47.422;15.018;2023-09-07T17:03:16;3.01;;;3.01;;
23668;SDS011;12011;47.422;15.018;2023-09-07T17:05:48;2.85;;;2.85;;
23668;SDS011;12011;47.422;15.018;2023-09-07T17:08:18;3.28;;;3.28;;
23668;SDS011;12011;47.422;15.018;2023-09-07T17:10:48;2.94;;;2.94;;
23668;SDS011;12011;47.422;15.018;2023-09-07T17:13:19;3.49;;;3.49;;
23668;SDS011;12011;47.422;15.018;2023-09-07T17:15:49;2.94;;;2.94;;
23668;SDS011;12011;47.422;15.018;2023-09-07T17:18:19;3.81;;;3.81;;
23668;SDS011;12011;47.422;15.018;2023-09-07T17:20:52;3.19;;;3.19;;
23668;SDS011;12011;47.422;15.018;2023-09-07T17:23:23;3.16;;;3.16;;
23668;SDS011;12011;47.422;15.018;2023-09-07T17:25:59;3.44;;;3.44;;
23668;SDS011;12011;47.422;15.018;2023-09-07T17:28:30;3.18;;;3.18;;
23668;SDS011;12011;47.422;15.018;2023-09-07T17:30:59;3.41;;;3.41;;
23668;SDS011;12011;47.422;15.018;2023-09-07T17:33:29;3.32;;;3.32;;
23668;SDS011;12011;47.422;15.018;2023-09-07T17:36:02;3.36;;;3.36;;
23668;SDS011;12011;47.422;15.018;2023-09-07T17:39:09;3.21;;;3.21;;
23668;SDS011;12011;47.422;15.018;2023-09-07T17:45:32;3.28;;;3.28;;
23668;SDS011;12011;47.422;15.018;2023-09-07T17:49:05;3.41;;;3.41;;
23668;SDS011;12011;47.422;15.018;2023-09-07T17:56:00;3.29;;;3.29;;
23668;SDS011;12011;47.422;15.018;2023-09-07T18:00:27;3.56;;;3.56;;
23668;SDS011;12011;47.422;15.018;2023-09-07T18:04:16;3.29;;;3.29;;
23668;SDS011;12011;47.422;15.018;2023-09-07T18:12:17;3.39;;;3.38;;
23668;SDS011;12011;47.422;15.018;2023-09-07T18:16:08;3.22;;;3.22;;
23668;SDS011;12011;47.422;15.018;2023-09-07T18:19:33;3.30;;;3.30;;
23668;SDS011;12011;47.422;15.018;2023-09-07T18:30:35;3.27;;;3.27;;
23668;SDS011;12011;47.422;15.018;2023-09-07T18:45:21;3.94;;;3.94;;
23668;SDS011;12011;47.422;15.018;2023-09-07T18:48:49;3.78;;;3.78;;
23668;SDS011;12011;47.422;15.018;2023-09-07T18:52:59;3.84;;;3.84;;
23668;SDS011;12011;47.422;15.018;2023-09-07T19:00:06;4.18;;;4.18;;
23668;SDS011;12011;47.422;15.018;2023-09-07T19:03:38;3.78;;;3.77;;
23668;SDS011;12011;47.422;15.018;2023-09-07T19:07:16;3.96;;;3.94;;
23668;SDS011;12011;47.422;15.018;2023-09-07T19:10:41;3.89;;;3.89;;
23668;SDS011;12011;47.422;15.018;2023-09-07T19:13:31;3.51;;;3.51;;
23668;SDS011;12011;47.422;15.018;2023-09-07T19:16:03;3.91;;;3.91;;
23668;SDS011;12011;47.422;15.018;2023-09-07T19:18:33;3.79;;;3.79;;
23668;SDS011;12011;47.422;15.018;2023-09-07T19:21:06;4.15;;;4.15;;
23668;SDS011;12011;47.422;15.018;2023-09-07T19:23:40;3.85;;;3.85;;
23668;SDS011;12011;47.422;15.018;2023-09-07T19:26:24;3.98;;;3.98;;
23668;SDS011;12011;47.422;15.018;2023-09-07T19:28:59;4.00;;;4.00;;
23668;SDS011;12011;47.422;15.018;2023-09-07T19:31:33;4.17;;;4.17;;
23668;SDS011;12011;47.422;15.018;2023-09-07T19:34:03;4.19;;;4.19;;
23668;SDS011;12011;47.422;15.018;2023-09-07T19:36:34;4.05;;;4.05;;
23668;SDS011;12011;47.422;15.018;2023-09-07T19:39:07;3.90;;;3.90;;
23668;SDS011;12011;47.422;15.018;2023-09-07T19:41:37;4.19;;;4.19;;
23668;SDS011;12011;47.422;15.018;2023-09-07T19:44:08;3.86;;;3.86;;
23668;SDS011;12011;47.422;15.018;2023-09-07T19:46:41;3.86;;;3.86;;
23668;SDS011;12011;47.422;15.018;2023-09-07T19:49:12;4.36;;;4.36;;
23668;SDS011;12011;47.422;15.018;2023-09-07T19:51:43;4.76;;;4.75;;
23668;SDS011;12011;47.422;15.018;2023-09-07T19:54:12;3.68;;;3.68;;
23668;SDS011;12011;47.422;15.018;2023-09-07T19:56:42;3.90;;;3.89;;
23668;SDS011;12011;47.422;15.018;2023-09-07T19:59:12;3.99;;;3.97;;
23668;SDS011;12011;47.422;15.018;2023-09-07T20:01:54;4.23;;;4.23;;
23668;SDS011;12011;47.422;15.018;2023-09-07T20:04:28;3.76;;;3.76;;
23668;SDS011;12011;47.422;15.018;2023-09-07T20:06:57;3.82;;;3.82;;
23668;SDS011;12011;47.422;15.018;2023-09-07T20:09:28;4.12;;;4.12;;
23668;SDS011;12011;47.422;15.018;2023-09-07T20:11:58;4.09;;;4.09;;
23668;SDS011;12011;47.422;15.018;2023-09-07T20:14:29;4.06;;;4.06;;
23668;SDS011;12011;47.422;15.018;2023-09-07T20:17:02;3.86;;;3.86;;
23668;SDS011;12011;47.422;15.018;2023-09-07T20:19:40;3.69;;;3.69;;
23668;SDS011;12011;47.422;15.018;2023-09-07T20:22:12;3.92;;;3.92;;
23668;SDS011;12011;47.422;15.018;2023-09-07T20:24:45;3.90;;;3.90;;
23668;SDS011;12011;47.422;15.018;2023-09-07T20:27:15;4.05;;;4.05;;
23668;SDS011;12011;47.422;15.018;2023-09-07T20:29:45;4.00;;;3.98;;
23668;SDS011;12011;47.422;15.018;2023-09-07T20:32:17;3.80;;;3.80;;
23668;SDS011;12011;47.422;15.018;2023-09-07T20:34:48;4.04;;;4.04;;
23668;SDS011;12011;47.422;15.018;2023-09-07T20:37:18;4.15;;;4.15;;
23668;SDS011;12011;47.422;15.018;2023-09-07T20:39:50;3.93;;;3.93;;
23668;SDS011;12011;47.422;15.018;2023-09-07T20:42:22;4.13;;;4.13;;
23668;SDS011;12011;47.422;15.018;2023-09-07T20:44:52;4.18;;;4.18;;
23668;SDS011;12011;47.422;15.018;2023-09-07T20:47:24;4.36;;;4.36;;
23668;SDS011;12011;47.422;15.018;2023-09-07T20:49:58;4.34;;;4.34;;
23668;SDS011;12011;47.422;15.018;2023-09-07T20:52:31;4.66;;;4.66;;
23668;SDS011;12011;47.422;15.018;2023-09-07T20:55:01;6.04;;;6.04;;
23668;SDS011;12011;47.422;15.018;2023-09-07T20:57:32;8.19;;;8.19;;
23668;SDS011;12011;47.422;15.018;2023-09-07T21:00:03;7.51;;;7.51;;
23668;SDS011;12011;47.422;15.018;2023-09-07T21:02:38;6.33;;;6.32;;
23668;SDS011;12011;47.422;15.018;2023-09-07T21:05:10;5.11;;;5.10;;
23668;SDS011;12011;47.422;15.018;2023-09-07T21:07:43;4.75;;;4.74;;
23668;SDS011;12011;47.422;15.018;2023-09-07T21:10:13;5.10;;;5.10;;
23668;SDS011;12011;47.422;15.018;2023-09-07T21:12:42;4.85;;;4.85;;
23668;SDS011;12011;47.422;15.018;2023-09-07T21:15:13;4.82;;;4.82;;
23668;SDS011;12011;47.422;15.018;2023-09-07T21:17:46;5.17;;;5.17;;
23668;SDS011;12011;47.422;15.018;2023-09-07T21:20:15;5.45;;;5.44;;